Time;durP1;ratioP1;P1;durP2;ratioP2;P2;SDS_P1;SDS_P2;PMS_P1;PMS_P2;Temp;Humidity;BMP_temperature;BMP_pressure;BME280_temperature;BME280_humidity;BME280_pressure;Samples;Min_cycle;Max_cycle;Signal;HPM_P1;HPM_P2
2023/07/26 00:01:26;;;;;;;21.60;9.00;;;;;;;25.15;61.27;100582.70;107144;1264;22632;-50
2023/07/26 00:03:58;;;;;;;21.00;8.30;;;;;;;25.10;61.54;100580.11;106947;1264;25367;-50
2023/07/26 00:06:25;;;;;;;23.50;8.60;;;;;;;25.07;61.85;100576.09;107111;1264;25347;-50
2023/07/26 00:08:52;;;;;;;27.90;10.00;;;;;;;25.05;62.41;100569.69;106983;1258;22542;-50
2023/07/26 00:11:19;;;;;;;27.70;10.00;;;;;;;25.02;62.62;100570.09;107024;1255;22537;-51
2023/07/26 00:13:46;;;;;;;24.30;9.90;;;;;;;25.00;62.94;100572.58;107041;1267;25359;-50
2023/07/26 00:16:13;;;;;;;20.70;9.10;;;;;;;24.98;63.22;100574.52;107072;1267;23905;-49
2023/07/26 00:18:40;;;;;;;23.40;9.00;;;;;;;24.96;63.28;100583.55;107108;1261;25437;-50
2023/07/26 00:21:07;;;;;;;26.00;10.00;;;;;;;24.94;63.74;100585.16;107104;1264;25353;-50
2023/07/26 00:23:34;;;;;;;20.60;9.70;;;;;;;24.93;63.78;100584.20;107132;1261;25396;-50
2023/07/26 00:26:02;;;;;;;29.00;10.90;;;;;;;24.92;64.00;100581.64;107028;1264;25345;-49
2023/07/26 00:28:29;;;;;;;28.00;10.40;;;;;;;24.91;64.27;100580.10;107047;1253;22579;-50
2023/07/26 00:30:56;;;;;;;50.40;15.90;;;;;;;24.91;64.21;100577.44;107009;1264;25325;-49
2023/07/26 00:33:23;;;;;;;69.50;19.80;;;;;;;24.91;63.99;100570.19;107069;1260;25325;-50
2023/07/26 00:35:50;;;;;;;67.00;21.80;;;;;;;24.90;63.96;100563.31;106897;1266;25406;-50
2023/07/26 00:38:17;;;;;;;66.10;20.90;;;;;;;24.89;63.61;100561.65;107048;1264;25450;-50
2023/07/26 00:40:44;;;;;;;58.90;18.30;;;;;;;24.87;63.36;100559.52;106782;1267;25412;-50
2023/07/26 00:43:10;;;;;;;49.40;17.00;;;;;;;24.85;63.41;100555.54;107094;1263;22601;-49
2023/07/26 00:45:39;;;;;;;46.70;15.60;;;;;;;24.88;63.45;100547.88;107054;1261;25379;-50
2023/07/26 00:48:06;;;;;;;37.80;14.80;;;;;;;24.88;63.70;100539.05;106738;1268;25324;-50
2023/07/26 00:50:33;;;;;;;32.10;12.20;;;;;;;24.86;64.00;100533.49;107076;1264;25369;-50
2023/07/26 00:53:02;;;;;;;27.10;10.80;;;;;;;24.85;64.23;100530.55;106523;1276;25413;-50
2023/07/26 00:55:29;;;;;;;21.60;9.00;;;;;;;24.84;64.83;100524.44;106740;1260;25415;-50
2023/07/26 00:57:56;;;;;;;18.80;7.30;;;;;;;24.84;65.26;100518.58;107071;1257;25331;-50
2023/07/26 01:00:23;;;;;;;18.40;9.00;;;;;;;24.84;65.63;100514.34;106976;1267;22634;-51
2023/07/26 01:02:50;;;;;;;27.10;8.30;;;;;;;24.83;65.77;100510.52;107039;1264;25324;-50
2023/07/26 01:05:18;;;;;;;20.30;8.20;;;;;;;24.83;65.95;100503.95;107040;1261;25372;-50
2023/07/26 01:07:50;;;;;;;15.90;9.40;;;;;;;24.83;66.15;100501.12;107055;1270;25343;-50
2023/07/26 01:10:24;;;;;;;18.30;7.40;;;;;;;24.83;66.32;100500.06;107142;1254;22530;-51
2023/07/26 01:13:03;;;;;;;17.90;7.50;;;;;;;24.83;66.46;100499.69;107074;1256;24269;-51
2023/07/26 01:15:32;;;;;;;16.10;7.10;;;;;;;24.83;66.40;100496.33;107052;1254;25349;-50
2023/07/26 01:18:09;;;;;;;18.20;7.50;;;;;;;24.82;66.31;100500.33;107161;1264;25325;-50
2023/07/26 01:20:36;;;;;;;15.80;7.90;;;;;;;24.69;66.59;100499.09;107103;1252;22533;-50
2023/07/26 01:23:03;;;;;;;16.30;7.80;;;;;;;24.67;66.51;100488.11;107032;1260;22566;-50
2023/07/26 01:25:33;;;;;;;14.30;7.50;;;;;;;24.69;66.72;100484.38;107028;1260;26493;-51
2023/07/26 01:27:59;;;;;;;15.70;7.30;;;;;;;24.75;66.76;100479.27;106848;1263;25335;-50
2023/07/26 01:30:30;;;;;;;13.20;7.40;;;;;;;24.76;66.84;100480.73;106756;1267;25328;-50
2023/07/26 01:33:03;;;;;;;13.50;7.60;;;;;;;24.77;66.90;100483.55;106888;1269;25336;-51
2023/07/26 01:35:30;;;;;;;19.20;8.30;;;;;;;24.76;66.68;100488.77;107185;1265;22531;-51
2023/07/26 01:37:57;;;;;;;17.50;8.10;;;;;;;24.75;66.47;100489.25;106824;1260;25354;-50
2023/07/26 01:40:25;;;;;;;17.40;8.80;;;;;;;24.74;66.40;100486.63;106855;1263;22542;-50
2023/07/26 01:42:52;;;;;;;20.50;8.90;;;;;;;24.73;66.38;100481.39;106886;1267;25387;-51
2023/07/26 01:45:19;;;;;;;20.90;8.70;;;;;;;24.72;66.47;100480.95;106854;1257;25369;-50
2023/07/26 01:47:46;;;;;;;19.70;8.90;;;;;;;24.70;66.61;100476.66;106795;1272;25328;-49
2023/07/26 01:50:13;;;;;;;17.50;7.50;;;;;;;24.70;66.93;100471.85;106772;1269;25328;-50
2023/07/26 01:52:40;;;;;;;16.70;7.40;;;;;;;24.69;66.94;100472.11;107196;1267;25523;-49
2023/07/26 01:55:07;;;;;;;21.50;10.00;;;;;;;24.69;67.03;100471.13;106755;1260;25335;-51
2023/07/26 01:57:34;;;;;;;18.80;7.50;;;;;;;24.68;67.03;100463.21;107165;1257;25373;-50
2023/07/26 02:00:01;;;;;;;14.60;7.20;;;;;;;24.66;67.36;100461.58;107064;1265;25481;-50
2023/07/26 02:02:39;;;;;;;15.90;8.10;;;;;;;24.64;67.31;100459.25;107083;1260;22560;-50
2023/07/26 02:05:06;;;;;;;19.70;8.60;;;;;;;24.62;67.42;100460.31;107065;1264;25353;-51
2023/07/26 02:07:33;;;;;;;24.40;9.10;;;;;;;24.61;67.42;100463.11;107050;1259;25234;-50
2023/07/26 02:10:01;;;;;;;22.50;8.90;;;;;;;24.58;67.57;100463.66;106915;1256;25395;-50
2023/07/26 02:12:28;;;;;;;14.80;7.70;;;;;;;24.57;67.52;100458.80;106959;1264;22537;-50
2023/07/26 02:14:55;;;;;;;21.80;9.20;;;;;;;24.56;67.57;100458.91;107153;1263;25339;-51
2023/07/26 02:17:22;;;;;;;27.90;10.80;;;;;;;24.54;67.50;100458.70;107057;1264;25348;-50
2023/07/26 02:19:50;;;;;;;29.10;10.30;;;;;;;24.53;67.52;100458.23;107151;1263;23282;-50
2023/07/26 02:22:17;;;;;;;28.50;11.10;;;;;;;24.52;67.51;100453.09;106786;1261;25353;-50
2023/07/26 02:24:43;;;;;;;26.50;10.50;;;;;;;24.50;67.42;100458.52;106853;1267;25353;-50
2023/07/26 02:27:10;;;;;;;28.30;11.00;;;;;;;24.49;67.40;100459.17;106875;1267;23296;-50
2023/07/26 02:29:38;;;;;;;29.00;11.10;;;;;;;24.48;67.77;100460.45;106982;1262;25353;-51
2023/07/26 02:32:05;;;;;;;31.20;10.80;;;;;;;24.47;68.14;100456.27;106821;1259;22533;-50
2023/07/26 02:34:32;;;;;;;23.00;9.50;;;;;;;24.47;68.00;100455.42;106525;1273;25324;-50
2023/07/26 02:36:59;;;;;;;21.20;9.40;;;;;;;24.47;68.32;100450.30;107241;1264;25363;-50
2023/07/26 02:39:26;;;;;;;30.40;12.70;;;;;;;24.47;68.19;100446.71;107161;1264;25335;-50
2023/07/26 02:41:53;;;;;;;34.60;11.50;;;;;;;24.47;68.03;100443.21;107070;1263;25322;-50
2023/07/26 02:44:20;;;;;;;27.70;10.50;;;;;;;24.46;67.77;100446.30;106803;1267;25412;-50
2023/07/26 02:46:47;;;;;;;25.70;11.60;;;;;;;24.45;67.69;100443.54;106965;1264;25328;-50
2023/07/26 02:49:14;;;;;;;18.40;9.10;;;;;;;24.44;67.74;100445.77;107119;1262;25324;-50
2023/07/26 02:51:41;;;;;;;17.40;9.00;;;;;;;24.43;67.70;100451.31;107024;1264;25473;-50
2023/07/26 02:54:08;;;;;;;24.30;10.30;;;;;;;24.43;67.77;100454.88;106875;1265;25345;-50
2023/07/26 02:56:35;;;;;;;29.10;10.40;;;;;;;24.43;67.81;100454.73;107263;1263;25405;-50
2023/07/26 02:59:02;;;;;;;20.10;9.00;;;;;;;24.43;67.86;100454.36;107067;1268;25391;-51
2023/07/26 03:01:29;;;;;;;22.50;9.90;;;;;;;24.43;68.05;100447.95;107128;1262;25383;-50
2023/07/26 03:03:56;;;;;;;24.40;10.50;;;;;;;24.44;68.21;100450.37;106906;1258;25484;-50
2023/07/26 03:06:23;;;;;;;21.90;9.10;;;;;;;24.45;68.28;100443.20;107099;1264;25351;-50
2023/07/26 03:08:50;;;;;;;20.80;10.20;;;;;;;24.45;68.62;100444.19;107069;1257;25415;-51
2023/07/26 03:11:17;;;;;;;27.30;11.00;;;;;;;24.47;68.71;100446.93;107038;1260;22620;-51
2023/07/26 03:13:44;;;;;;;28.10;11.10;;;;;;;24.48;68.66;100450.37;106976;1261;25363;-49
2023/07/26 03:16:12;;;;;;;33.00;11.50;;;;;;;24.49;68.79;100456.48;106968;1263;25574;-51
2023/07/26 03:18:39;;;;;;;23.80;10.00;;;;;;;24.50;68.82;100453.72;106736;1269;25532;-51
2023/07/26 03:21:06;;;;;;;33.70;11.40;;;;;;;24.51;68.89;100447.59;107098;1263;25488;-50
2023/07/26 03:23:34;;;;;;;26.50;12.00;;;;;;;24.52;68.77;100443.79;106909;1263;25364;-51
2023/07/26 03:26:01;;;;;;;19.20;9.70;;;;;;;24.54;68.71;100436.21;107126;1263;25412;-51
2023/07/26 03:28:28;;;;;;;23.30;8.40;;;;;;;24.55;68.72;100432.41;107102;1264;25357;-50
2023/07/26 03:30:55;;;;;;;22.10;8.40;;;;;;;24.56;68.51;100432.80;106954;1254;25513;-49
2023/07/26 03:33:23;;;;;;;21.10;8.90;;;;;;;24.58;68.64;100430.36;106818;1268;25357;-49
2023/07/26 03:35:50;;;;;;;21.50;8.40;;;;;;;24.60;68.63;100429.09;106906;1269;25431;-50
2023/07/26 03:38:17;;;;;;;24.20;9.10;;;;;;;24.64;68.43;100434.48;106792;1254;25342;-50
2023/07/26 03:40:46;;;;;;;27.10;10.00;;;;;;;24.66;68.66;100438.35;107129;1262;22533;-50
2023/07/26 03:43:13;;;;;;;21.40;9.40;;;;;;;24.69;68.81;100441.11;106760;1266;25396;-50
2023/07/26 03:45:40;;;;;;;26.80;9.30;;;;;;;24.74;68.97;100442.14;107216;1264;24345;-50
2023/07/26 03:48:07;;;;;;;20.10;9.60;;;;;;;24.78;68.84;100443.69;106947;1265;25325;-50
2023/07/26 03:50:34;;;;;;;23.90;10.40;;;;;;;24.83;68.88;100450.70;107060;1263;25412;-50
2023/07/26 03:53:01;;;;;;;22.60;9.50;;;;;;;24.89;68.56;100458.69;107071;1257;23897;-50
2023/07/26 03:55:28;;;;;;;21.80;9.20;;;;;;;24.96;68.69;100464.10;107080;1262;25332;-50
2023/07/26 03:57:57;;;;;;;23.40;8.20;;;;;;;25.05;68.54;100460.93;106985;1264;25515;-51
2023/07/26 04:00:24;;;;;;;20.70;8.60;;;;;;;25.14;68.61;100464.90;107026;1265;22529;-50
2023/07/26 04:02:51;;;;;;;22.60;8.10;;;;;;;25.26;68.22;100460.98;106904;1257;25383;-50
2023/07/26 04:05:18;;;;;;;23.30;9.70;;;;;;;25.39;67.63;100464.43;107035;1256;25363;-51
2023/07/26 04:07:45;;;;;;;21.40;8.80;;;;;;;25.48;67.10;100465.41;107141;1263;25353;-51
2023/07/26 04:10:12;;;;;;;27.20;10.10;;;;;;;25.53;66.64;100464.79;107132;1267;25325;-50
2023/07/26 04:12:39;;;;;;;28.30;10.50;;;;;;;25.56;66.44;100464.86;107039;1267;25325;-50
2023/07/26 04:15:07;;;;;;;30.60;11.70;;;;;;;25.58;66.28;100467.25;106946;1268;25378;-50
2023/07/26 04:17:34;;;;;;;31.60;11.40;;;;;;;25.59;65.93;100465.17;106719;1270;25367;-49
2023/07/26 04:20:01;;;;;;;33.60;11.20;;;;;;;25.59;65.65;100467.98;106589;1267;25357;-49
2023/07/26 04:22:28;;;;;;;28.00;11.00;;;;;;;25.60;65.59;100467.75;107076;1264;25350;-50
2023/07/26 04:24:55;;;;;;;30.40;11.70;;;;;;;25.60;65.72;100465.58;106854;1259;25351;-50
2023/07/26 04:27:22;;;;;;;38.40;13.40;;;;;;;25.61;65.74;100465.91;106675;1262;25533;-50
2023/07/26 04:29:49;;;;;;;43.00;13.40;;;;;;;25.62;65.68;100464.90;106782;1265;25358;-50
2023/07/26 04:32:16;;;;;;;35.40;12.40;;;;;;;25.63;65.29;100465.36;106929;1263;25378;-51
2023/07/26 04:34:43;;;;;;;38.10;12.10;;;;;;;25.63;65.18;100465.87;107089;1256;25348;-50
2023/07/26 04:37:10;;;;;;;34.00;12.30;;;;;;;25.64;65.15;100466.52;107046;1261;25335;-51
2023/07/26 04:39:36;;;;;;;32.30;10.00;;;;;;;25.65;65.31;100465.00;106807;1258;25314;-51
2023/07/26 04:42:04;;;;;;;29.70;10.00;;;;;;;25.65;65.42;100464.41;107033;1264;25424;-50
2023/07/26 04:44:31;;;;;;;31.80;10.50;;;;;;;25.66;65.39;100467.88;106859;1261;25401;-51
2023/07/26 04:46:58;;;;;;;25.70;10.40;;;;;;;25.67;65.30;100470.70;107074;1253;25342;-50
2023/07/26 04:49:25;;;;;;;25.20;9.70;;;;;;;25.68;65.36;100472.31;107031;1266;25514;-51
2023/07/26 04:51:52;;;;;;;34.10;11.90;;;;;;;25.69;65.36;100471.89;107025;1263;22584;-49
2023/07/26 04:54:19;;;;;;;31.60;11.20;;;;;;;25.70;65.24;100471.23;107065;1264;25335;-50
2023/07/26 04:56:46;;;;;;;25.40;10.60;;;;;;;25.72;65.17;100467.52;107125;1253;25488;-50
2023/07/26 04:59:13;;;;;;;23.50;10.10;;;;;;;25.73;65.01;100464.26;106748;1267;25335;-50
2023/07/26 05:01:39;;;;;;;26.00;9.40;;;;;;;25.74;65.20;100457.89;107120;1264;25415;-50
2023/07/26 05:04:08;;;;;;;25.40;10.10;;;;;;;25.77;65.03;100454.50;106982;1255;25441;-51
2023/07/26 05:06:36;;;;;;;24.40;9.00;;;;;;;25.78;65.16;100449.54;107156;1260;23003;-50
2023/07/26 05:09:05;;;;;;;16.60;7.90;;;;;;;25.81;65.18;100447.52;107079;1257;25327;-49
2023/07/26 05:11:32;;;;;;;20.10;8.70;;;;;;;25.84;65.26;100440.34;107177;1252;25348;-50
2023/07/26 05:13:59;;;;;;;24.60;9.80;;;;;;;25.88;65.28;100440.23;106809;1271;25485;-50
2023/07/26 05:16:26;;;;;;;18.90;7.60;;;;;;;25.91;65.31;100443.81;107107;1262;25417;-50
2023/07/26 05:18:57;;;;;;;17.40;7.40;;;;;;;25.96;65.44;100447.45;107143;1264;25412;-50
2023/07/26 05:21:25;;;;;;;18.50;9.10;;;;;;;26.03;65.40;100451.11;107128;1262;25368;-50
2023/07/26 05:23:52;;;;;;;17.40;8.30;;;;;;;26.10;65.40;100452.22;107092;1259;24359;-50
2023/07/26 05:26:19;;;;;;;18.80;8.20;;;;;;;26.18;65.18;100446.50;107061;1259;25338;-49
2023/07/26 05:28:45;;;;;;;16.00;7.60;;;;;;;26.28;64.95;100441.34;107164;1262;25347;-50
2023/07/26 05:31:12;;;;;;;12.40;7.00;;;;;;;26.39;64.76;100437.23;107116;1263;25366;-49
2023/07/26 05:33:39;;;;;;;23.40;8.00;;;;;;;26.52;64.53;100433.38;107103;1264;25450;-50
2023/07/26 05:36:06;;;;;;;16.90;6.80;;;;;;;26.66;64.25;100430.83;107167;1257;25357;-50
2023/07/26 05:38:33;;;;;;;23.00;8.00;;;;;;;26.82;63.69;100428.62;107075;1262;22545;-50
2023/07/26 05:41:06;;;;;;;13.20;7.20;;;;;;;26.97;63.37;100423.98;107110;1264;25322;-50
2023/07/26 05:43:33;;;;;;;18.70;7.50;;;;;;;27.11;62.88;100426.70;107064;1265;25372;-50
2023/07/26 05:46:01;;;;;;;19.80;7.10;;;;;;;27.23;62.45;100421.05;107056;1254;25370;-50
2023/07/26 05:48:29;;;;;;;18.10;7.50;;;;;;;27.34;62.06;100414.45;107086;1262;25348;-50
2023/07/26 05:50:56;;;;;;;13.00;6.60;;;;;;;27.45;61.88;100412.58;107144;1252;24198;-50
2023/07/26 05:53:23;;;;;;;17.10;6.10;;;;;;;27.56;61.67;100405.59;107223;1268;25364;-50
2023/07/26 05:55:50;;;;;;;19.80;6.50;;;;;;;27.65;61.52;100403.79;107041;1257;23875;-49
2023/07/26 05:58:17;;;;;;;18.20;7.30;;;;;;;27.76;61.05;100400.88;107007;1251;25475;-49
2023/07/26 06:00:44;;;;;;;11.50;6.90;;;;;;;27.89;60.59;100404.80;107088;1263;25363;-49
2023/07/26 06:03:11;;;;;;;13.80;5.90;;;;;;;27.99;60.12;100404.86;107091;1263;25474;-50
2023/07/26 06:05:40;;;;;;;11.10;5.50;;;;;;;28.10;59.84;100409.66;107125;1262;25366;-50
2023/07/26 06:08:07;;;;;;;12.80;6.90;;;;;;;28.18;59.68;100414.13;106569;1270;22772;-49
2023/07/26 06:10:34;;;;;;;17.10;7.20;;;;;;;28.26;59.52;100417.30;106776;1262;25373;-50
2023/07/26 06:13:01;;;;;;;19.30;7.90;;;;;;;28.30;59.31;100409.14;106706;1268;25419;-49
2023/07/26 06:15:28;;;;;;;16.10;7.20;;;;;;;28.33;59.23;100408.92;106918;1267;25342;-50
2023/07/26 06:17:55;;;;;;;19.00;6.90;;;;;;;28.33;59.04;100406.55;106802;1268;25343;-50
2023/07/26 06:20:22;;;;;;;19.60;7.40;;;;;;;28.33;59.04;100401.42;106918;1258;25397;-49
2023/07/26 06:22:48;;;;;;;19.10;6.70;;;;;;;28.32;58.98;100395.23;106757;1267;25402;-51
2023/07/26 06:25:15;;;;;;;14.90;7.80;;;;;;;28.31;59.14;100393.76;106791;1262;25216;-49
2023/07/26 06:27:42;;;;;;;14.60;6.50;;;;;;;28.30;59.26;100381.16;106953;1272;25474;-50
2023/07/26 06:30:11;;;;;;;16.20;7.50;;;;;;;28.29;59.36;100383.38;106889;1266;25394;-49
2023/07/26 06:32:38;;;;;;;16.10;7.80;;;;;;;28.30;59.28;100375.48;106677;1259;26754;-50
2023/07/26 06:35:06;;;;;;;15.40;7.10;;;;;;;28.31;59.25;100377.36;106810;1266;25748;-49
2023/07/26 06:37:33;;;;;;;14.80;7.60;;;;;;;28.32;59.28;100368.88;106524;1270;25723;-50
2023/07/26 06:40:00;;;;;;;18.20;7.80;;;;;;;28.33;59.21;100368.70;106665;1269;25394;-50
2023/07/26 06:42:26;;;;;;;12.40;6.80;;;;;;;28.35;59.13;100370.88;107105;1260;25457;-50
2023/07/26 06:44:53;;;;;;;17.30;7.80;;;;;;;28.36;59.17;100367.84;107094;1265;25369;-50
2023/07/26 06:47:20;;;;;;;12.80;7.00;;;;;;;28.38;59.00;100365.72;107182;1263;25505;-51
2023/07/26 06:49:47;;;;;;;16.10;6.50;;;;;;;28.39;58.77;100367.79;106925;1267;25341;-50
2023/07/26 06:52:16;;;;;;;16.00;6.70;;;;;;;28.39;58.83;100369.03;107166;1258;25335;-50
2023/07/26 06:54:43;;;;;;;14.80;7.00;;;;;;;28.38;58.80;100371.77;106757;1275;25370;-50
2023/07/26 06:57:10;;;;;;;17.10;7.00;;;;;;;28.38;58.91;100369.42;107031;1262;25353;-50
2023/07/26 06:59:37;;;;;;;15.40;6.70;;;;;;;28.40;58.83;100360.34;107126;1264;25415;-50
2023/07/26 07:02:05;;;;;;;15.60;6.80;;;;;;;28.41;58.60;100360.19;107115;1263;25440;-50
2023/07/26 07:04:32;;;;;;;15.60;7.50;;;;;;;28.43;58.76;100357.18;106997;1261;25357;-51
2023/07/26 07:06:59;;;;;;;14.40;7.30;;;;;;;28.43;58.90;100360.19;106923;1264;25412;-50
2023/07/26 07:09:26;;;;;;;14.00;6.60;;;;;;;28.47;58.93;100363.23;106952;1265;25336;-51
2023/07/26 07:11:53;;;;;;;19.20;8.10;;;;;;;28.48;59.13;100368.55;106879;1260;25335;-50
2023/07/26 07:14:20;;;;;;;14.80;6.70;;;;;;;28.60;59.02;100379.91;106991;1264;25415;-50
2023/07/26 07:16:47;;;;;;;18.50;7.50;;;;;;;28.74;58.45;100385.33;106984;1263;25335;-50
2023/07/26 07:19:14;;;;;;;13.00;6.40;;;;;;;28.90;58.15;100392.75;106998;1264;25364;-50
2023/07/26 07:21:41;;;;;;;14.90;6.60;;;;;;;29.06;57.60;100388.48;107087;1264;25415;-51
2023/07/26 07:24:08;;;;;;;14.00;7.20;;;;;;;29.20;57.19;100385.09;107148;1257;24266;-50
2023/07/26 07:26:35;;;;;;;20.00;7.80;;;;;;;29.32;56.82;100398.38;107162;1251;25339;-49
2023/07/26 07:29:02;;;;;;;16.70;7.70;;;;;;;29.43;56.47;100405.27;106895;1267;25412;-49
2023/07/26 07:31:29;;;;;;;17.20;7.00;;;;;;;29.50;56.28;100400.35;107026;1267;25335;-49
2023/07/26 07:33:56;;;;;;;18.40;6.30;;;;;;;29.55;56.06;100398.84;106957;1254;25337;-50
2023/07/26 07:36:23;;;;;;;13.30;6.30;;;;;;;29.58;55.71;100405.24;107114;1267;22552;-50
2023/07/26 07:38:50;;;;;;;19.30;6.70;;;;;;;29.67;55.14;100404.30;107110;1264;25360;-50
2023/07/26 07:41:17;;;;;;;15.50;7.00;;;;;;;29.70;55.37;100404.87;107068;1264;25357;-49
2023/07/26 07:43:44;;;;;;;15.50;6.90;;;;;;;29.72;55.09;100406.45;107223;1261;25481;-49
2023/07/26 07:46:11;;;;;;;22.10;7.80;;;;;;;29.73;54.97;100409.91;107126;1262;25360;-49
2023/07/26 07:48:40;;;;;;;14.80;7.20;;;;;;;29.73;54.94;100410.84;107212;1264;25360;-49
2023/07/26 07:51:07;;;;;;;15.60;6.90;;;;;;;29.71;54.91;100418.48;107166;1257;22536;-49
2023/07/26 07:53:34;;;;;;;18.00;7.70;;;;;;;29.69;54.71;100423.20;107076;1265;25354;-49
2023/07/26 07:56:02;;;;;;;18.70;7.50;;;;;;;29.66;54.78;100421.19;106941;1253;281560;-49
2023/07/26 07:58:29;;;;;;;16.00;6.90;;;;;;;29.63;54.77;100423.86;106918;1267;22534;-49
2023/07/26 08:00:58;;;;;;;16.30;6.80;;;;;;;29.58;54.84;100421.66;107136;1262;25375;-50
2023/07/26 08:03:25;;;;;;;20.60;7.80;;;;;;;29.54;54.85;100426.23;107112;1256;23310;-49
2023/07/26 08:05:53;;;;;;;22.10;8.60;;;;;;;29.50;54.85;100424.59;107110;1262;25427;-49
2023/07/26 08:08:20;;;;;;;21.00;8.20;;;;;;;29.47;54.93;100421.13;106838;1267;25405;-49
2023/07/26 08:10:47;;;;;;;20.10;8.40;;;;;;;29.44;54.94;100421.65;106851;1265;25352;-49
2023/07/26 08:13:14;;;;;;;24.10;8.40;;;;;;;29.42;54.97;100424.29;107119;1263;25453;-49
2023/07/26 08:15:41;;;;;;;21.00;7.30;;;;;;;29.40;54.93;100424.84;107196;1262;25360;-50
2023/07/26 08:18:08;;;;;;;22.70;7.80;;;;;;;29.38;54.82;100424.88;107089;1252;25354;-49
2023/07/26 08:20:36;;;;;;;15.60;7.00;;;;;;;29.36;54.98;100422.08;106945;1254;25337;-49
2023/07/26 08:23:03;;;;;;;19.70;7.50;;;;;;;29.34;54.97;100418.02;106848;1261;25360;-49
2023/07/26 08:25:31;;;;;;;19.80;7.90;;;;;;;29.31;54.97;100418.67;107022;1271;25335;-49
2023/07/26 08:27:59;;;;;;;15.30;6.50;;;;;;;29.30;55.00;100415.39;106786;1259;25332;-48
2023/07/26 08:30:26;;;;;;;16.40;6.70;;;;;;;29.30;54.97;100414.55;107016;1256;25366;-50
2023/07/26 08:32:53;;;;;;;16.90;6.70;;;;;;;29.29;55.16;100408.95;107089;1265;25335;-49
2023/07/26 08:35:23;;;;;;;14.30;6.60;;;;;;;29.28;55.22;100405.48;107090;1256;25481;-50
2023/07/26 08:37:50;;;;;;;15.90;6.30;;;;;;;29.27;55.14;100405.73;107176;1263;25335;-50
2023/07/26 08:40:18;;;;;;;15.20;6.30;;;;;;;29.27;55.22;100396.31;107142;1265;25324;-50
2023/07/26 08:42:45;;;;;;;16.70;6.70;;;;;;;29.27;55.24;100392.92;106859;1261;25332;-50
2023/07/26 08:45:12;;;;;;;14.00;6.50;;;;;;;29.26;55.20;100390.33;107068;1267;23872;-50
2023/07/26 08:47:40;;;;;;;15.00;6.40;;;;;;;29.26;55.41;100385.48;106907;1266;25473;-50
2023/07/26 08:50:08;;;;;;;14.50;6.60;;;;;;;29.26;55.45;100381.73;106879;1267;25345;-50
2023/07/26 08:52:36;;;;;;;16.40;7.10;;;;;;;29.26;55.38;100380.34;107124;1253;25347;-50
2023/07/26 08:55:03;;;;;;;14.60;6.50;;;;;;;29.27;55.66;100375.91;107095;1257;22524;-50
2023/07/26 08:57:30;;;;;;;13.80;6.60;;;;;;;29.28;55.37;100371.99;106814;1260;23865;-50
2023/07/26 08:59:57;;;;;;;17.10;6.60;;;;;;;29.30;55.34;100374.28;107175;1257;25450;-50
2023/07/26 09:02:24;;;;;;;14.60;6.80;;;;;;;29.32;55.28;100378.58;107152;1265;25443;-50
2023/07/26 09:04:52;;;;;;;16.50;6.90;;;;;;;29.34;55.40;100378.85;107189;1263;25335;-50
2023/07/26 09:07:19;;;;;;;16.50;6.70;;;;;;;29.37;55.61;100380.40;107058;1259;25400;-50
2023/07/26 09:09:46;;;;;;;14.30;6.60;;;;;;;29.39;55.53;100378.91;107150;1264;25364;-50
2023/07/26 09:12:33;;;;;;;17.60;7.10;;;;;;;29.41;55.44;100378.49;107083;1266;25485;-50
2023/07/26 09:15:04;;;;;;;18.60;6.80;;;;;;;29.43;55.53;100373.63;107106;1257;25516;-50
2023/07/26 09:17:39;;;;;;;16.50;6.90;;;;;;;29.45;55.42;100378.77;107178;1262;23403;-49
2023/07/26 09:20:21;;;;;;;14.90;6.70;;;;;;;29.48;55.65;100381.52;107194;1253;22652;-50
2023/07/26 09:22:57;;;;;;;12.00;6.20;;;;;;;29.50;55.72;100384.10;107130;1262;25350;-50
2023/07/26 09:25:31;;;;;;;17.10;6.40;;;;;;;29.53;55.45;100380.45;107059;1260;25412;-50
2023/07/26 09:27:59;;;;;;;13.60;6.10;;;;;;;29.54;55.54;100378.89;107050;1254;25332;-51
2023/07/26 09:30:26;;;;;;;13.20;6.50;;;;;;;29.55;55.30;100374.83;106843;1268;25575;-49
2023/07/26 09:32:56;;;;;;;15.70;6.20;;;;;;;29.55;55.11;100375.54;106834;1260;25797;-49
2023/07/26 09:35:23;;;;;;;19.80;6.70;;;;;;;29.56;55.08;100371.38;107109;1264;25335;-49
2023/07/26 09:37:50;;;;;;;11.30;6.70;;;;;;;29.54;55.24;100365.98;107087;1259;25314;-49
2023/07/26 09:40:34;;;;;;;13.80;6.10;;;;;;;29.54;55.24;100359.62;107080;1264;25350;-49
2023/07/26 09:43:05;;;;;;;15.50;6.20;;;;;;;29.53;55.42;100359.73;107024;1268;25380;-49
2023/07/26 09:45:32;;;;;;;12.10;6.00;;;;;;;29.51;55.42;100360.62;106892;1262;25517;-49
2023/07/26 09:48:04;;;;;;;15.30;7.00;;;;;;;29.50;55.40;100361.79;107044;1266;25479;-50
2023/07/26 09:50:32;;;;;;;15.80;7.10;;;;;;;29.49;55.37;100363.36;107098;1265;25392;-49
2023/07/26 09:53:03;;;;;;;17.00;6.90;;;;;;;29.49;55.50;100362.83;107164;1255;24215;-50
2023/07/26 09:55:31;;;;;;;16.70;6.80;;;;;;;29.48;55.52;100355.38;107061;1262;22583;-50
2023/07/26 09:58:01;;;;;;;14.90;6.50;;;;;;;29.49;55.33;100360.71;107061;1272;25399;-50
2023/07/26 10:00:29;;;;;;;16.90;6.60;;;;;;;29.48;55.38;100357.22;107187;1254;25336;-50
2023/07/26 10:03:03;;;;;;;10.90;5.70;;;;;;;29.48;55.24;100354.14;107239;1263;22541;-50
2023/07/26 10:05:38;;;;;;;14.10;6.50;;;;;;;29.48;55.18;100355.27;107130;1253;25412;-49
2023/07/26 10:08:05;;;;;;;13.30;6.40;;;;;;;29.47;55.14;100359.64;107051;1264;25363;-50
2023/07/26 10:10:32;;;;;;;12.00;6.30;;;;;;;29.46;55.23;100359.86;107094;1266;25340;-49
2023/07/26 10:13:00;;;;;;;17.60;6.50;;;;;;;29.45;55.15;100358.36;107206;1265;25494;-49
2023/07/26 10:15:30;;;;;;;20.60;7.40;;;;;;;29.45;55.16;100355.67;106821;1268;25344;-49
2023/07/26 10:17:57;;;;;;;15.10;6.50;;;;;;;29.46;54.94;100353.34;107167;1256;25360;-48
2023/07/26 10:20:24;;;;;;;13.80;6.50;;;;;;;29.47;54.89;100344.79;106798;1268;25537;-49
2023/07/26 10:22:51;;;;;;;12.60;6.60;;;;;;;29.48;55.00;100346.17;106796;1261;25338;-49
2023/07/26 10:25:18;;;;;;;16.00;6.60;;;;;;;29.48;54.96;100347.34;107156;1265;25444;-50
2023/07/26 10:27:45;;;;;;;17.30;6.70;;;;;;;29.49;54.79;100349.22;107054;1256;25306;-49
2023/07/26 10:30:12;;;;;;;14.20;6.50;;;;;;;29.49;54.89;100346.54;106950;1265;25363;-49
2023/07/26 10:32:49;;;;;;;16.50;7.50;;;;;;;29.50;54.93;100344.70;107106;1266;25360;-49
2023/07/26 10:35:32;;;;;;;12.70;6.90;;;;;;;29.51;54.86;100343.69;107151;1262;24251;-49
2023/07/26 10:38:01;;;;;;;17.30;6.70;;;;;;;29.51;54.76;100342.17;107083;1268;25472;-50
2023/07/26 10:40:32;;;;;;;14.10;7.90;;;;;;;29.52;54.58;100344.19;107028;1269;24441;-50
2023/07/26 10:42:59;;;;;;;;;;;;;;;29.54;54.72;100341.17;107196;1260;25306;-50
2023/07/26 10:45:48;;;;;;;13.30;6.10;;;;;;;29.54;54.43;100337.02;106935;1253;25360;-50
2023/07/26 10:48:27;;;;;;;14.40;5.90;;;;;;;29.55;54.54;100335.35;107088;1259;25443;-49
2023/07/26 10:50:56;;;;;;;16.10;6.50;;;;;;;29.56;54.62;100335.98;107067;1265;25390;-49
2023/07/26 10:53:29;;;;;;;15.00;6.50;;;;;;;29.57;54.56;100333.01;107112;1262;22548;-50
2023/07/26 10:56:09;;;;;;;16.00;6.60;;;;;;;29.58;54.45;100336.09;106949;1264;22506;-49
2023/07/26 10:58:45;;;;;;;13.20;6.40;;;;;;;29.59;54.50;100329.36;106974;1272;25343;-50
2023/07/26 11:01:30;;;;;;;14.00;6.70;;;;;;;29.60;54.47;100329.06;106909;1262;25390;-51
2023/07/26 11:03:58;;;;;;;13.70;5.90;;;;;;;29.61;54.42;100328.76;106712;1259;22516;-49
2023/07/26 11:06:50;;;;;;;16.10;6.40;;;;;;;29.63;54.17;100326.08;106832;1262;22561;-49
2023/07/26 11:09:33;;;;;;;16.90;6.70;;;;;;;29.64;54.23;100315.73;106890;1259;25427;-49
2023/07/26 11:12:02;;;;;;;19.80;6.80;;;;;;;29.65;54.27;100315.42;106665;1269;25427;-49